sensor_id;sensor_type;location;lat;lon;timestamp;P1;durP1;ratioP1;P2;durP2;ratioP2
43877;SDS011;29815;48.184;11.268;2023-03-14T00:01:26;0.68;;;0.45;;
43877;SDS011;29815;48.184;11.268;2023-03-14T00:03:55;0.55;;;0.30;;
43877;SDS011;29815;48.184;11.268;2023-03-14T00:06:27;2.15;;;0.40;;
43877;SDS011;29815;48.184;11.268;2023-03-14T00:08:56;1.65;;;0.40;;
43877;SDS011;29815;48.184;11.268;2023-03-14T00:11:26;0.28;;;0.28;;
43877;SDS011;29815;48.184;11.268;2023-03-14T00:13:56;2.40;;;0.43;;
43877;SDS011;29815;48.184;11.268;2023-03-14T00:16:26;1.05;;;0.40;;
43877;SDS011;29815;48.184;11.268;2023-03-14T00:18:58;0.88;;;0.30;;
43877;SDS011;29815;48.184;11.268;2023-03-14T00:21:29;0.45;;;0.30;;
43877;SDS011;29815;48.184;11.268;2023-03-14T00:23:58;1.00;;;0.32;;
43877;SDS011;29815;48.184;11.268;2023-03-14T00:26:28;0.50;;;0.30;;
43877;SDS011;29815;48.184;11.268;2023-03-14T00:28:57;0.85;;;0.40;;
43877;SDS011;29815;48.184;11.268;2023-03-14T00:31:27;0.30;;;0.25;;
43877;SDS011;29815;48.184;11.268;2023-03-14T00:33:57;0.63;;;0.20;;
43877;SDS011;29815;48.184;11.268;2023-03-14T00:36:26;0.50;;;0.32;;
43877;SDS011;29815;48.184;11.268;2023-03-14T00:38:57;0.50;;;0.43;;
43877;SDS011;29815;48.184;11.268;2023-03-14T00:41:27;0.75;;;0.30;;
43877;SDS011;29815;48.184;11.268;2023-03-14T00:43:57;2.35;;;0.50;;
43877;SDS011;29815;48.184;11.268;2023-03-14T01:06:28;0.65;;;0.30;;
43877;SDS011;29815;48.184;11.268;2023-03-14T01:08:58;0.70;;;0.40;;
43877;SDS011;29815;48.184;11.268;2023-03-14T01:11:29;1.00;;;0.50;;
43877;SDS011;29815;48.184;11.268;2023-03-14T01:14:02;0.65;;;0.28;;
43877;SDS011;29815;48.184;11.268;2023-03-14T01:16:34;0.98;;;0.40;;
43877;SDS011;29815;48.184;11.268;2023-03-14T01:19:04;2.45;;;1.15;;
43877;SDS011;29815;48.184;11.268;2023-03-14T01:21:36;2.92;;;0.40;;
43877;SDS011;29815;48.184;11.268;2023-03-14T01:24:06;1.13;;;0.55;;
43877;SDS011;29815;48.184;11.268;2023-03-14T01:26:36;0.77;;;0.50;;
43877;SDS011;29815;48.184;11.268;2023-03-14T01:29:07;1.70;;;0.40;;
43877;SDS011;29815;48.184;11.268;2023-03-14T01:31:38;1.35;;;0.57;;
43877;SDS011;29815;48.184;11.268;2023-03-14T01:34:08;1.45;;;0.47;;
43877;SDS011;29815;48.184;11.268;2023-03-14T01:36:39;1.00;;;0.50;;
43877;SDS011;29815;48.184;11.268;2023-03-14T01:39:09;1.02;;;0.47;;
43877;SDS011;29815;48.184;11.268;2023-03-14T01:41:39;0.95;;;0.40;;
43877;SDS011;29815;48.184;11.268;2023-03-14T01:44:09;1.17;;;0.40;;
43877;SDS011;29815;48.184;11.268;2023-03-14T01:46:40;4.30;;;0.80;;
43877;SDS011;29815;48.184;11.268;2023-03-14T01:49:24;0.65;;;0.40;;
43877;SDS011;29815;48.184;11.268;2023-03-14T01:52:04;2.53;;;0.57;;
43877;SDS011;29815;48.184;11.268;2023-03-14T01:54:40;1.08;;;0.80;;
43877;SDS011;29815;48.184;11.268;2023-03-14T01:57:13;1.98;;;0.30;;
43877;SDS011;29815;48.184;11.268;2023-03-14T01:59:50;1.52;;;0.50;;
43877;SDS011;29815;48.184;11.268;2023-03-14T02:02:24;3.38;;;0.45;;
43877;SDS011;29815;48.184;11.268;2023-03-14T02:04:56;2.75;;;0.40;;
43877;SDS011;29815;48.184;11.268;2023-03-14T02:07:35;1.15;;;0.30;;
43877;SDS011;29815;48.184;11.268;2023-03-14T02:10:17;0.73;;;0.30;;
43877;SDS011;29815;48.184;11.268;2023-03-14T02:12:52;0.20;;;0.20;;
43877;SDS011;29815;48.184;11.268;2023-03-14T02:15:42;1.70;;;0.32;;
43877;SDS011;29815;48.184;11.268;2023-03-14T02:18:42;1.63;;;0.30;;
43877;SDS011;29815;48.184;11.268;2023-03-14T02:21:42;0.47;;;0.20;;
43877;SDS011;29815;48.184;11.268;2023-03-14T02:24:27;1.08;;;0.30;;
43877;SDS011;29815;48.184;11.268;2023-03-14T02:27:13;1.85;;;0.40;;
43877;SDS011;29815;48.184;11.268;2023-03-14T02:29:48;0.32;;;0.25;;
43877;SDS011;29815;48.184;11.268;2023-03-14T02:32:21;0.63;;;0.20;;
43877;SDS011;29815;48.184;11.268;2023-03-14T02:34:57;0.57;;;0.30;;
43877;SDS011;29815;48.184;11.268;2023-03-14T02:37:33;0.40;;;0.28;;
43877;SDS011;29815;48.184;11.268;2023-03-14T02:40:11;1.23;;;0.13;;
43877;SDS011;29815;48.184;11.268;2023-03-14T02:42:44;0.82;;;0.40;;
43877;SDS011;29815;48.184;11.268;2023-03-14T02:45:31;0.63;;;0.30;;
43877;SDS011;29815;48.184;11.268;2023-03-14T02:48:15;0.73;;;0.20;;
43877;SDS011;29815;48.184;11.268;2023-03-14T02:50:50;0.22;;;0.20;;
43877;SDS011;29815;48.184;11.268;2023-03-14T02:53:25;1.35;;;0.30;;
43877;SDS011;29815;48.184;11.268;2023-03-14T02:56:02;0.40;;;0.30;;
43877;SDS011;29815;48.184;11.268;2023-03-14T02:58:36;0.60;;;0.40;;
43877;SDS011;29815;48.184;11.268;2023-03-14T03:01:19;0.55;;;0.20;;
43877;SDS011;29815;48.184;11.268;2023-03-14T03:03:49;1.17;;;0.30;;
43877;SDS011;29815;48.184;11.268;2023-03-14T03:06:20;0.77;;;0.20;;
43877;SDS011;29815;48.184;11.268;2023-03-14T03:08:49;0.32;;;0.20;;
43877;SDS011;29815;48.184;11.268;2023-03-14T03:11:19;1.05;;;0.30;;
43877;SDS011;29815;48.184;11.268;2023-03-14T03:13:50;0.50;;;0.30;;
43877;SDS011;29815;48.184;11.268;2023-03-14T03:16:20;0.43;;;0.20;;
43877;SDS011;29815;48.184;11.268;2023-03-14T03:18:50;0.10;;;0.10;;
43877;SDS011;29815;48.184;11.268;2023-03-14T03:21:20;0.20;;;0.20;;
43877;SDS011;29815;48.184;11.268;2023-03-14T03:23:51;0.57;;;0.20;;
43877;SDS011;29815;48.184;11.268;2023-03-14T03:26:21;0.35;;;0.20;;
43877;SDS011;29815;48.184;11.268;2023-03-14T03:28:52;0.35;;;0.10;;
43877;SDS011;29815;48.184;11.268;2023-03-14T03:31:22;0.00;;;0.00;;
43877;SDS011;29815;48.184;11.268;2023-03-14T03:33:52;1.95;;;0.20;;
43877;SDS011;29815;48.184;11.268;2023-03-14T03:36:22;0.30;;;0.10;;
43877;SDS011;29815;48.184;11.268;2023-03-14T03:38:53;0.30;;;0.10;;
43877;SDS011;29815;48.184;11.268;2023-03-14T03:41:24;0.38;;;0.20;;
43877;SDS011;29815;48.184;11.268;2023-03-14T03:43:55;0.30;;;0.20;;
43877;SDS011;29815;48.184;11.268;2023-03-14T03:46:26;0.10;;;0.10;;
43877;SDS011;29815;48.184;11.268;2023-03-14T03:48:56;1.02;;;0.20;;
43877;SDS011;29815;48.184;11.268;2023-03-14T03:53:58;0.15;;;0.10;;
43877;SDS011;29815;48.184;11.268;2023-03-14T03:56:31;0.17;;;0.10;;
43877;SDS011;29815;48.184;11.268;2023-03-14T03:59:01;0.20;;;0.10;;
43877;SDS011;29815;48.184;11.268;2023-03-14T04:01:31;0.15;;;0.05;;
43877;SDS011;29815;48.184;11.268;2023-03-14T04:04:01;0.35;;;0.20;;
43877;SDS011;29815;48.184;11.268;2023-03-14T04:06:31;0.38;;;0.25;;
43877;SDS011;29815;48.184;11.268;2023-03-14T04:09:01;0.25;;;0.10;;
43877;SDS011;29815;48.184;11.268;2023-03-14T04:11:57;0.17;;;0.10;;
43877;SDS011;29815;48.184;11.268;2023-03-14T04:14:37;0.90;;;0.22;;
43877;SDS011;29815;48.184;11.268;2023-03-14T04:17:16;0.40;;;0.10;;
43877;SDS011;29815;48.184;11.268;2023-03-14T04:19:47;0.30;;;0.20;;
43877;SDS011;29815;48.184;11.268;2023-03-14T04:22:20;0.10;;;0.10;;
43877;SDS011;29815;48.184;11.268;2023-03-14T04:24:51;0.15;;;0.15;;
43877;SDS011;29815;48.184;11.268;2023-03-14T04:27:21;0.10;;;0.10;;
43877;SDS011;29815;48.184;11.268;2023-03-14T04:29:52;0.55;;;0.10;;
43877;SDS011;29815;48.184;11.268;2023-03-14T04:32:38;0.17;;;0.17;;
43877;SDS011;29815;48.184;11.268;2023-03-14T04:35:08;0.80;;;0.13;;
43877;SDS011;29815;48.184;11.268;2023-03-14T04:37:38;0.82;;;0.30;;
43877;SDS011;29815;48.184;11.268;2023-03-14T04:40:09;0.22;;;0.20;;
43877;SDS011;29815;48.184;11.268;2023-03-14T04:42:43;0.20;;;0.20;;
43877;SDS011;29815;48.184;11.268;2023-03-14T04:45:15;0.70;;;0.22;;
43877;SDS011;29815;48.184;11.268;2023-03-14T04:47:45;0.68;;;0.22;;
43877;SDS011;29815;48.184;11.268;2023-03-14T22:59:30;2.67;;;1.02;;
43877;SDS011;29815;48.184;11.268;2023-03-14T23:02:00;5.35;;;1.10;;
43877;SDS011;29815;48.184;11.268;2023-03-14T23:04:30;1.88;;;1.08;;
43877;SDS011;29815;48.184;11.268;2023-03-14T23:06:59;1.17;;;0.70;;
43877;SDS011;29815;48.184;11.268;2023-03-14T23:09:29;3.20;;;1.30;;
43877;SDS011;29815;48.184;11.268;2023-03-14T23:11:58;4.03;;;1.15;;
43877;SDS011;29815;48.184;11.268;2023-03-14T23:14:29;2.75;;;1.35;;
43877;SDS011;29815;48.184;11.268;2023-03-14T23:16:59;2.80;;;0.98;;
43877;SDS011;29815;48.184;11.268;2023-03-14T23:19:31;1.63;;;1.05;;
43877;SDS011;29815;48.184;11.268;2023-03-14T23:24:36;2.38;;;0.93;;
43877;SDS011;29815;48.184;11.268;2023-03-14T23:27:05;2.03;;;1.20;;
43877;SDS011;29815;48.184;11.268;2023-03-14T23:29:36;5.28;;;1.40;;
43877;SDS011;29815;48.184;11.268;2023-03-14T23:32:05;1.23;;;0.80;;
43877;SDS011;29815;48.184;11.268;2023-03-14T23:34:35;2.40;;;1.23;;
43877;SDS011;29815;48.184;11.268;2023-03-14T23:37:05;2.20;;;1.23;;
43877;SDS011;29815;48.184;11.268;2023-03-14T23:39:34;1.80;;;1.10;;
43877;SDS011;29815;48.184;11.268;2023-03-14T23:42:04;3.00;;;1.00;;
43877;SDS011;29815;48.184;11.268;2023-03-14T23:44:36;3.70;;;1.48;;
43877;SDS011;29815;48.184;11.268;2023-03-14T23:47:06;3.13;;;0.88;;
43877;SDS011;29815;48.184;11.268;2023-03-14T23:49:37;3.25;;;1.13;;
43877;SDS011;29815;48.184;11.268;2023-03-14T23:52:08;1.80;;;1.10;;
43877;SDS011;29815;48.184;11.268;2023-03-14T23:54:37;1.48;;;0.95;;
